Time,TemperatureF,DewpointF,PressureIn,WindDirection,WindDirectionDegrees,WindSpeedMPH,WindSpeedGustMPH,Humidity,HourlyPrecipIn,Conditions,Clouds,dailyrainin,SoftwareType,DateUTC
2013-08-14 00:00:00,55.3,53.6,29.96,North,5,0.0,1.0,94,0.00,,,0.37,Wunderground v.1.15,2013-08-14 04:00:00,
2013-08-14 00:01:00,55.2,53.5,29.96,North,5,0.0,1.0,94,0.00,,,0.37,Wunderground v.1.15,2013-08-14 04:01:00,
2013-08-14 00:02:00,55.2,53.5,29.96,North,360,0.0,1.0,94,0.00,,,0.37,Wunderground v.1.15,2013-08-14 04:02:00,
2013-08-14 00:04:00,55.2,53.5,29.96,North,5,0.0,1.0,94,0.00,,,0.37,Wunderground v.1.15,2013-08-14 04:04:00,
2013-08-14 00:05:00,55.2,53.5,29.96,North,5,0.0,1.0,94,0.00,,,0.37,Wunderground v.1.15,2013-08-14 04:05:00,
2013-08-14 00:11:00,55.0,53.3,29.96,North,5,0.0,1.0,94,0.00,,,0.37,Wunderground v.1.15,2013-08-14 04:11:00,
2013-08-14 00:12:00,55.0,53.3,29.96,North,360,0.0,1.0,94,0.00,,,0.37,Wunderground v.1.15,2013-08-14 04:12:00,
2013-08-14 00:17:00,54.9,53.2,29.96,North,360,0.0,1.0,94,0.00,,,0.37,Wunderground v.1.15,2013-08-14 04:17:00,
2013-08-14 00:23:00,54.7,53.0,29.97,North,5,0.0,1.0,94,0.00,,,0.37,Wunderground v.1.15,2013-08-14 04:23:00,
2013-08-14 00:29:00,54.5,52.8,29.96,North,5,0.0,1.0,94,0.00,,,0.37,Wunderground v.1.15,2013-08-14 04:29:00,
2013-08-14 00:35:00,54.3,52.6,29.97,North,5,0.0,1.0,94,0.00,,,0.37,Wunderground v.1.15,2013-08-14 04:35:00,
2013-08-14 00:41:00,54.2,52.8,29.97,North,5,0.0,1.0,95,0.00,,,0.37,Wunderground v.1.15,2013-08-14 04:41:00,
2013-08-14 00:46:00,54.1,52.7,29.97,North,360,0.0,1.0,95,0.00,,,0.37,Wunderground v.1.15,2013-08-14 04:46:00,
2013-08-14 00:52:00,54.0,52.6,29.97,North,5,0.0,1.0,95,0.00,,,0.37,Wunderground v.1.15,2013-08-14 04:52:00,
2013-08-14 00:58:00,53.8,52.1,29.97,North,5,0.0,1.0,94,0.00,,,0.37,Wunderground v.1.15,2013-08-14 04:58:00,
2013-08-14 01:03:00,53.7,52.0,29.97,North,5,0.0,1.0,94,0.00,,,0.00,Wunderground v.1.15,2013-08-14 05:03:00,
2013-08-14 01:09:00,53.5,52.1,29.97,North,5,0.0,1.0,95,0.00,,,0.00,Wunderground v.1.15,2013-08-14 05:09:00,
2013-08-14 01:14:00,53.4,52.0,29.97,North,360,0.0,1.0,95,0.00,,,0.00,Wunderground v.1.15,2013-08-14 05:14:00,
2013-08-14 01:20:00,53.2,51.5,29.97,North,5,0.0,1.0,94,0.00,,,0.00,Wunderground v.1.15,2013-08-14 05:20:00,
2013-08-14 01:26:00,53.0,51.3,29.98,North,360,0.0,1.0,94,0.00,,,0.00,Wunderground v.1.15,2013-08-14 05:26:00,
2013-08-14 01:32:00,52.8,51.4,29.98,North,5,0.0,1.0,95,0.00,,,0.00,Wunderground v.1.15,2013-08-14 05:32:00,
2013-08-14 01:38:00,52.6,51.2,29.98,North,5,0.0,1.0,95,0.00,,,0.00,Wunderground v.1.15,2013-08-14 05:38:00,
2013-08-14 01:44:00,52.3,50.9,29.98,North,5,0.0,1.0,95,0.00,,,0.00,Wunderground v.1.15,2013-08-14 05:44:00,
2013-08-14 01:50:00,52.1,50.7,29.98,North,360,0.0,1.0,95,0.00,,,0.00,Wunderground v.1.15,2013-08-14 05:50:00,
2013-08-14 01:55:00,51.9,50.8,29.98,North,5,0.0,1.0,96,0.00,,,0.00,Wunderground v.1.15,2013-08-14 05:55:00,
2013-08-14 02:00:00,51.8,50.4,29.98,North,5,0.0,0.0,95,0.00,,,0.00,Wunderground v.1.15,2013-08-14 06:00:00,
2013-08-14 02:06:00,51.5,50.1,29.98,North,5,0.0,0.0,95,0.00,,,0.00,Wunderground v.1.15,2013-08-14 06:06:00,
2013-08-14 02:12:00,51.2,50.1,29.97,North,360,0.0,0.0,96,0.00,,,0.00,Wunderground v.1.15,2013-08-14 06:12:00,
2013-08-14 02:18:00,50.9,49.8,29.97,North,5,0.0,0.0,96,0.00,,,0.00,Wunderground v.1.15,2013-08-14 06:18:00,
2013-08-14 02:24:00,50.8,49.7,29.97,North,360,0.0,0.0,96,0.00,,,0.00,Wunderground v.1.15,2013-08-14 06:24:00,
2013-08-14 02:29:00,50.6,49.5,29.97,North,360,0.0,0.0,96,0.00,,,0.00,Wunderground v.1.15,2013-08-14 06:29:00,
2013-08-14 02:35:00,50.4,49.3,29.97,North,360,0.0,0.0,96,0.00,,,0.00,Wunderground v.1.15,2013-08-14 06:35:00,
2013-08-14 02:41:00,50.3,49.2,29.97,North,5,0.0,0.0,96,0.00,,,0.00,Wunderground v.1.15,2013-08-14 06:41:00,
2013-08-14 02:47:00,50.1,49.0,29.97,North,5,0.0,0.0,96,0.00,,,0.00,Wunderground v.1.15,2013-08-14 06:47:00,
2013-08-14 02:53:00,49.9,49.1,29.97,North,5,0.0,0.0,97,0.00,,,0.00,Wunderground v.1.15,2013-08-14 06:53:00,
2013-08-14 02:59:00,49.8,49.0,29.97,North,5,0.0,0.0,97,0.00,,,0.00,Wunderground v.1.15,2013-08-14 06:59:00,
2013-08-14 03:04:00,49.6,48.8,29.97,North,5,0.0,0.0,97,0.00,,,0.00,Wunderground v.1.15,2013-08-14 07:04:00,
2013-08-14 03:10:00,49.5,48.7,29.97,North,5,0.0,0.0,97,0.00,,,0.00,Wunderground v.1.15,2013-08-14 07:10:00,
2013-08-14 03:16:00,49.4,48.6,29.97,North,5,0.0,0.0,97,0.00,,,0.00,Wunderground v.1.15,2013-08-14 07:16:00,
2013-08-14 03:22:00,49.2,48.4,29.98,North,5,0.0,0.0,97,0.00,,,0.00,Wunderground v.1.15,2013-08-14 07:22:00,
2013-08-14 03:27:00,49.2,48.4,29.98,North,5,0.0,0.0,97,0.00,,,0.00,Wunderground v.1.15,2013-08-14 07:27:00,
2013-08-14 03:33:00,49.0,48.2,29.98,North,5,0.0,0.0,97,0.00,,,0.00,Wunderground v.1.15,2013-08-14 07:33:00,
2013-08-14 03:39:00,48.9,48.1,29.98,North,5,0.0,0.0,97,0.00,,,0.00,Wunderground v.1.15,2013-08-14 07:39:00,
2013-08-14 03:45:00,48.7,47.9,29.99,North,5,0.0,0.0,97,0.00,,,0.00,Wunderground v.1.15,2013-08-14 07:45:00,
2013-08-14 03:50:00,48.7,47.9,29.99,North,360,0.0,0.0,97,0.00,,,0.00,Wunderground v.1.15,2013-08-14 07:50:00,
2013-08-14 03:56:00,48.6,48.1,29.99,North,5,0.0,0.0,98,0.00,,,0.00,Wunderground v.1.15,2013-08-14 07:56:00,
2013-08-14 04:01:00,48.5,48.0,29.99,North,360,0.0,0.0,98,0.00,,,0.00,Wunderground v.1.15,2013-08-14 08:01:00,
2013-08-14 04:07:00,48.4,47.9,29.99,North,360,0.0,0.0,98,0.00,,,0.00,Wunderground v.1.15,2013-08-14 08:07:00,
2013-08-14 04:13:00,48.3,47.8,29.99,North,5,0.0,0.0,98,0.00,,,0.00,Wunderground v.1.15,2013-08-14 08:13:00,
2013-08-14 04:19:00,48.2,47.7,29.99,North,5,0.0,0.0,98,0.00,,,0.00,Wunderground v.1.15,2013-08-14 08:19:00,
2013-08-14 04:25:00,48.1,47.6,29.99,North,5,0.0,0.0,98,0.00,,,0.00,Wunderground v.1.15,2013-08-14 08:25:00,
2013-08-14 04:31:00,48.0,47.5,29.99,North,5,0.0,0.0,98,0.00,,,0.00,Wunderground v.1.15,2013-08-14 08:31:00,
2013-08-14 04:37:00,48.0,47.5,29.99,North,5,0.0,0.0,98,0.00,,,0.00,Wunderground v.1.15,2013-08-14 08:37:00,
2013-08-14 04:43:00,48.0,47.5,29.99,North,5,0.0,0.0,98,0.00,,,0.00,Wunderground v.1.15,2013-08-14 08:43:00,
2013-08-14 04:49:00,47.9,47.4,29.99,North,5,0.0,0.0,98,0.00,,,0.00,Wunderground v.1.15,2013-08-14 08:49:00,
2013-08-14 04:55:00,48.0,47.5,29.99,North,5,0.0,0.0,98,0.00,,,0.00,Wunderground v.1.15,2013-08-14 08:55:00,
2013-08-14 05:00:00,48.1,47.6,29.99,North,5,0.0,0.0,98,0.00,,,0.00,Wunderground v.1.15,2013-08-14 09:00:00,
2013-08-14 05:06:00,48.2,47.7,29.99,North,5,0.0,0.0,98,0.00,,,0.00,Wunderground v.1.15,2013-08-14 09:06:00,
2013-08-14 05:11:00,48.2,47.9,30.00,North,360,0.0,0.0,99,0.00,,,0.00,Wunderground v.1.15,2013-08-14 09:11:00,
2013-08-14 05:17:00,48.2,47.9,30.00,North,5,0.0,0.0,99,0.00,,,0.00,Wunderground v.1.15,2013-08-14 09:17:00,
2013-08-14 05:23:00,48.2,47.9,30.00,North,5,0.0,0.0,99,0.00,,,0.00,Wunderground v.1.15,2013-08-14 09:23:00,
2013-08-14 05:29:00,48.2,47.9,30.00,North,5,0.0,0.0,99,0.00,,,0.00,Wunderground v.1.15,2013-08-14 09:29:00,
2013-08-14 05:35:00,48.2,47.9,30.00,North,5,0.0,0.0,99,0.00,,,0.00,Wunderground v.1.15,2013-08-14 09:35:00,
2013-08-14 05:40:00,48.3,48.0,30.00,North,360,0.0,0.0,99,0.00,,,0.00,Wunderground v.1.15,2013-08-14 09:40:00,
2013-08-14 05:46:00,48.4,48.1,30.00,North,5,0.0,0.0,99,0.00,,,0.00,Wunderground v.1.15,2013-08-14 09:46:00,
2013-08-14 05:52:00,48.4,48.1,30.00,North,5,0.0,0.0,99,0.00,,,0.00,Wunderground v.1.15,2013-08-14 09:52:00,
2013-08-14 05:58:00,48.6,48.3,30.01,North,5,0.0,0.0,99,0.00,,,0.00,Wunderground v.1.15,2013-08-14 09:58:00,
2013-08-14 06:04:00,48.7,48.4,30.01,North,5,0.0,0.0,99,0.00,,,0.00,Wunderground v.1.15,2013-08-14 10:04:00,
2013-08-14 06:10:00,48.8,48.5,30.01,North,5,0.0,0.0,99,0.00,,,0.00,Wunderground v.1.15,2013-08-14 10:10:00,
2013-08-14 06:15:00,49.0,48.7,30.01,North,5,0.0,0.0,99,0.00,,,0.00,Wunderground v.1.15,2013-08-14 10:15:00,
2013-08-14 06:20:00,49.1,48.8,30.01,North,360,0.0,0.0,99,0.00,,,0.00,Wunderground v.1.15,2013-08-14 10:20:00,
2013-08-14 06:26:00,49.2,48.9,30.01,North,5,0.0,0.0,99,0.00,,,0.00,Wunderground v.1.15,2013-08-14 10:26:00,
2013-08-14 06:31:00,49.3,49.0,30.02,North,5,0.0,0.0,99,0.00,,,0.00,Wunderground v.1.15,2013-08-14 10:31:00,
2013-08-14 06:37:00,49.4,49.1,30.02,North,5,0.0,0.0,99,0.00,,,0.00,Wunderground v.1.15,2013-08-14 10:37:00,
2013-08-14 06:43:00,49.6,49.3,30.02,North,360,0.0,0.0,99,0.00,,,0.00,Wunderground v.1.15,2013-08-14 10:43:00,
2013-08-14 06:48:00,49.7,49.4,30.03,North,5,0.0,0.0,99,0.00,,,0.00,Wunderground v.1.15,2013-08-14 10:48:00,
2013-08-14 06:54:00,49.9,49.6,30.03,North,360,0.0,0.0,99,0.00,,,0.00,Wunderground v.1.15,2013-08-14 10:54:00,
2013-08-14 07:00:00,50.0,49.7,30.03,North,5,0.0,0.0,99,0.00,,,0.00,Wunderground v.1.15,2013-08-14 11:00:00,
2013-08-14 07:06:00,50.2,49.9,30.03,North,5,0.0,0.0,99,0.00,,,0.00,Wunderground v.1.15,2013-08-14 11:06:00,
2013-08-14 07:12:00,50.4,50.1,30.03,North,5,0.0,0.0,99,0.00,,,0.00,Wunderground v.1.15,2013-08-14 11:12:00,
2013-08-14 07:17:00,50.5,50.2,30.03,North,5,0.0,0.0,99,0.00,,,0.00,Wunderground v.1.15,2013-08-14 11:17:00,
2013-08-14 07:23:00,50.7,50.4,30.03,North,5,0.0,0.0,99,0.00,,,0.00,Wunderground v.1.15,2013-08-14 11:23:00,
2013-08-14 07:28:00,50.9,50.6,30.03,North,360,0.0,0.0,99,0.00,,,0.00,Wunderground v.1.15,2013-08-14 11:28:00,
2013-08-14 07:34:00,51.1,50.8,30.04,North,360,0.0,0.0,99,0.00,,,0.00,Wunderground v.1.15,2013-08-14 11:34:00,
2013-08-14 07:40:00,51.2,50.9,30.04,North,360,0.0,0.0,99,0.00,,,0.00,Wunderground v.1.15,2013-08-14 11:40:00,
2013-08-14 07:45:00,51.3,51.0,30.04,North,360,0.0,2.0,99,0.00,,,0.00,Wunderground v.1.15,2013-08-14 11:45:00,
2013-08-14 07:52:00,51.4,51.1,30.05,North,360,1.0,1.0,99,0.00,,,0.00,Wunderground v.1.15,2013-08-14 11:52:00,
2013-08-14 07:58:00,51.5,51.2,30.05,NNW,345,1.0,1.0,99,0.00,,,0.00,Wunderground v.1.15,2013-08-14 11:58:00,
2013-08-14 08:03:00,51.8,51.5,30.04,NNW,344,0.0,1.0,99,0.00,,,0.00,Wunderground v.1.15,2013-08-14 12:03:00,
2013-08-14 08:08:00,52.2,51.9,30.05,NNW,345,0.0,1.0,99,0.00,,,0.00,Wunderground v.1.15,2013-08-14 12:08:00,
2013-08-14 08:14:00,52.6,52.3,30.05,NNW,346,0.0,2.0,99,0.00,,,0.00,Wunderground v.1.15,2013-08-14 12:14:00,
2013-08-14 08:20:00,53.0,52.7,30.05,WNW,298,0.0,2.0,99,0.00,,,0.00,Wunderground v.1.15,2013-08-14 12:20:00,
2013-08-14 08:26:00,53.3,53.0,30.05,NNW,345,1.0,2.0,99,0.00,,,0.00,Wunderground v.1.15,2013-08-14 12:26:00,
2013-08-14 08:32:00,53.9,53.6,30.05,NNW,345,0.0,1.0,99,0.00,,,0.00,Wunderground v.1.15,2013-08-14 12:32:00,
2013-08-14 08:38:00,54.6,54.3,30.05,NW,326,0.0,5.0,99,0.00,,,0.00,Wunderground v.1.15,2013-08-14 12:38:00,
2013-08-14 08:44:00,56.3,56.0,30.06,NNW,327,1.0,2.0,99,0.00,,,0.00,Wunderground v.1.15,2013-08-14 12:44:00,
2013-08-14 08:50:00,57.5,55.5,30.06,NNW,327,1.0,7.0,93,0.00,,,0.00,Wunderground v.1.15,2013-08-14 12:50:00,
2013-08-14 08:55:00,58.2,55.6,30.06,NNW,345,1.0,1.0,91,0.00,,,0.00,Wunderground v.1.15,2013-08-14 12:55:00,
2013-08-14 09:00:00,58.6,55.4,30.06,NW,311,1.0,1.0,89,0.00,,,0.00,Wunderground v.1.15,2013-08-14 13:00:00,
2013-08-14 09:06:00,59.0,54.5,30.06,West,279,1.0,3.0,85,0.00,,,0.00,Wunderground v.1.15,2013-08-14 13:06:00,
2013-08-14 09:12:00,59.3,53.8,30.07,WNW,287,1.0,3.0,82,0.00,,,0.00,Wunderground v.1.15,2013-08-14 13:12:00,
2013-08-14 09:17:00,59.8,54.6,30.06,West,277,1.0,3.0,83,0.00,,,0.00,Wunderground v.1.15,2013-08-14 13:17:00,
2013-08-14 09:23:00,60.4,54.9,30.06,NW,309,1.0,6.0,82,0.00,,,0.00,Wunderground v.1.15,2013-08-14 13:23:00,
2013-08-14 09:28:00,60.4,54.5,30.06,West,259,1.0,6.0,81,0.00,,,0.00,Wunderground v.1.15,2013-08-14 13:28:00,
2013-08-14 09:34:00,60.7,54.5,30.07,WNW,295,1.0,10.0,80,0.00,,,0.00,Wunderground v.1.15,2013-08-14 13:34:00,
2013-08-14 09:39:00,60.9,53.3,30.07,WNW,296,1.0,10.0,76,0.00,,,0.00,Wunderground v.1.15,2013-08-14 13:39:00,
2013-08-14 09:44:00,60.9,54.0,30.07,WNW,288,1.0,3.0,78,0.00,,,0.00,Wunderground v.1.15,2013-08-14 13:44:00,
2013-08-14 09:50:00,61.8,54.5,30.07,West,271,1.0,8.0,77,0.00,,,0.00,Wunderground v.1.15,2013-08-14 13:50:00,
2013-08-14 09:55:00,62.4,55.4,30.07,NW,310,2.0,8.0,78,0.00,,,0.00,Wunderground v.1.15,2013-08-14 13:55:00,
2013-08-14 10:00:00,62.5,54.8,30.07,NNW,330,2.0,9.0,76,0.00,,,0.00,Wunderground v.1.15,2013-08-14 14:00:00,
2013-08-14 10:06:00,62.9,54.9,30.07,NW,311,2.0,9.0,75,0.00,,,0.00,Wunderground v.1.15,2013-08-14 14:06:00,
2013-08-14 10:11:00,62.8,54.8,30.07,NNE,33,3.0,14.0,75,0.00,,,0.00,Wunderground v.1.15,2013-08-14 14:11:00,
2013-08-14 10:17:00,63.6,55.5,30.07,NW,325,2.0,14.0,75,0.00,,,0.00,Wunderground v.1.15,2013-08-14 14:17:00,
2013-08-14 10:23:00,62.9,54.1,30.08,North,5,3.0,14.0,73,0.00,,,0.00,Wunderground v.1.15,2013-08-14 14:23:00,
2013-08-14 10:28:00,62.1,55.2,30.08,NNW,334,4.0,14.0,78,0.00,,,0.00,Wunderground v.1.15,2013-08-14 14:28:00,
2013-08-14 10:34:00,62.3,55.4,30.08,North,355,2.0,14.0,78,0.00,,,0.00,Wunderground v.1.15,2013-08-14 14:34:00,
2013-08-14 10:39:00,62.4,56.1,30.08,NW,309,1.0,1.0,80,0.00,,,0.00,Wunderground v.1.15,2013-08-14 14:39:00,
2013-08-14 10:45:00,61.8,53.8,30.09,WNW,300,2.0,14.0,75,0.00,,,0.00,Wunderground v.1.15,2013-08-14 14:45:00,
2013-08-14 10:51:00,61.6,54.7,30.09,West,277,2.0,14.0,78,0.00,,,0.00,Wunderground v.1.15,2013-08-14 14:51:00,
2013-08-14 10:56:00,61.6,54.7,30.09,North,355,3.0,11.0,78,0.00,,,0.00,Wunderground v.1.15,2013-08-14 14:56:00,
2013-08-14 11:01:00,62.5,55.5,30.09,NW,326,3.0,11.0,78,0.00,,,0.00,Wunderground v.1.15,2013-08-14 15:01:00,
2013-08-14 11:07:00,62.4,56.1,30.09,NNW,327,1.0,11.0,80,0.00,,,0.00,Wunderground v.1.15,2013-08-14 15:07:00,
2013-08-14 11:13:00,61.6,55.4,30.09,West,280,1.0,11.0,80,0.00,,,0.00,Wunderground v.1.15,2013-08-14 15:13:00,
2013-08-14 11:19:00,61.2,55.3,30.09,NW,322,1.0,11.0,81,0.00,,,0.00,Wunderground v.1.15,2013-08-14 15:19:00,
2013-08-14 11:25:00,62.0,56.1,30.10,WNW,298,2.0,11.0,81,0.00,,,0.00,Wunderground v.1.15,2013-08-14 15:25:00,
2013-08-14 11:31:00,62.2,56.0,30.09,NNW,339,3.0,11.0,80,0.00,,,0.00,Wunderground v.1.15,2013-08-14 15:31:00,
2013-08-14 11:36:00,61.8,54.9,30.10,NW,322,2.0,11.0,78,0.00,,,0.00,Wunderground v.1.15,2013-08-14 15:36:00,
2013-08-14 11:42:00,61.3,55.4,30.10,WNW,295,1.0,11.0,81,0.00,,,0.00,Wunderground v.1.15,2013-08-14 15:42:00,
2013-08-14 11:48:00,61.0,55.1,30.10,North,355,2.0,11.0,81,0.00,,,0.00,Wunderground v.1.15,2013-08-14 15:48:00,
2013-08-14 11:54:00,61.1,55.6,30.10,NW,307,1.0,11.0,82,0.00,,,0.00,Wunderground v.1.15,2013-08-14 15:54:00,
2013-08-14 11:59:00,61.7,56.5,30.10,NW,307,0.0,11.0,83,0.00,,,0.00,Wunderground v.1.15,2013-08-14 15:59:00,
2013-08-14 12:04:00,62.0,55.8,30.10,North,360,0.0,9.0,80,0.00,,,0.00,Wunderground v.1.15,2013-08-14 16:04:00,
2013-08-14 12:10:00,61.6,54.3,30.10,West,275,1.0,9.0,77,0.00,,,0.00,Wunderground v.1.15,2013-08-14 16:10:00,
2013-08-14 12:16:00,61.3,55.4,30.10,WNW,288,2.0,9.0,81,0.00,,,0.00,Wunderground v.1.15,2013-08-14 16:16:00,
2013-08-14 12:21:00,61.0,55.1,30.10,NW,318,1.0,2.0,81,0.00,,,0.00,Wunderground v.1.15,2013-08-14 16:21:00,
2013-08-14 12:26:00,61.5,55.6,30.10,WNW,294,1.0,9.0,81,0.00,,,0.00,Wunderground v.1.15,2013-08-14 16:26:00,
2013-08-14 12:32:00,61.7,56.1,30.10,NW,319,2.0,9.0,82,0.00,,,0.00,Wunderground v.1.15,2013-08-14 16:32:00,
2013-08-14 12:38:00,61.6,55.0,30.10,WNW,299,1.0,9.0,79,0.00,,,0.00,Wunderground v.1.15,2013-08-14 16:38:00,
2013-08-14 12:44:00,61.6,56.4,30.10,NW,326,1.0,9.0,83,0.00,,,0.00,Wunderground v.1.15,2013-08-14 16:44:00,
2013-08-14 12:49:00,61.4,55.2,30.10,North,355,1.0,9.0,80,0.00,,,0.00,Wunderground v.1.15,2013-08-14 16:49:00,
2013-08-14 12:55:00,61.5,54.9,30.10,North,355,0.0,9.0,79,0.00,,,0.00,Wunderground v.1.15,2013-08-14 16:55:00,
2013-08-14 13:01:00,62.7,57.5,30.09,NNW,331,0.0,8.0,83,0.00,,,0.00,Wunderground v.1.15,2013-08-14 17:01:00,
2013-08-14 13:07:00,62.6,56.0,30.09,NW,321,1.0,8.0,79,0.00,,,0.00,Wunderground v.1.15,2013-08-14 17:07:00,
2013-08-14 13:13:00,62.0,56.4,30.09,NNW,330,1.0,8.0,82,0.00,,,0.00,Wunderground v.1.15,2013-08-14 17:13:00,
2013-08-14 13:19:00,61.6,56.0,30.10,NNW,328,1.0,8.0,82,0.00,,,0.00,Wunderground v.1.15,2013-08-14 17:19:00,
2013-08-14 13:25:00,61.5,56.3,30.10,NNW,327,0.0,8.0,83,0.00,,,0.00,Wunderground v.1.15,2013-08-14 17:25:00,
2013-08-14 13:31:00,61.3,56.1,30.10,NNW,330,0.0,8.0,83,0.00,,,0.00,Wunderground v.1.15,2013-08-14 17:31:00,
2013-08-14 13:36:00,61.8,55.9,30.10,NNW,336,0.0,8.0,81,0.00,,,0.00,Wunderground v.1.15,2013-08-14 17:36:00,
2013-08-14 13:41:00,62.0,56.4,30.10,NNW,335,0.0,8.0,82,0.00,,,0.00,Wunderground v.1.15,2013-08-14 17:41:00,
2013-08-14 13:46:00,61.8,55.2,30.10,NNW,335,0.0,8.0,79,0.00,,,0.00,Wunderground v.1.15,2013-08-14 17:46:00,
2013-08-14 13:52:00,62.0,55.8,30.10,NNW,335,0.0,8.0,80,0.00,,,0.00,Wunderground v.1.15,2013-08-14 17:52:00,
2013-08-14 13:58:00,62.2,56.3,30.10,North,360,0.0,8.0,81,0.00,,,0.00,Wunderground v.1.15,2013-08-14 17:58:00,
2013-08-14 14:04:00,62.4,57.5,30.10,NW,311,0.0,5.0,84,0.00,,,0.00,Wunderground v.1.15,2013-08-14 18:04:00,
2013-08-14 14:09:00,62.3,57.1,30.10,NW,311,0.0,5.0,83,0.00,,,0.00,Wunderground v.1.15,2013-08-14 18:09:00,
2013-08-14 14:14:00,62.2,57.0,30.10,NW,310,0.0,5.0,83,0.00,,,0.00,Wunderground v.1.15,2013-08-14 18:14:00,
2013-08-14 14:21:00,62.0,57.4,30.10,WNW,302,0.0,5.0,85,0.00,,,0.00,Wunderground v.1.15,2013-08-14 18:21:00,
2013-08-14 14:27:00,61.7,56.1,30.10,NNW,338,0.0,3.0,82,0.00,,,0.00,Wunderground v.1.15,2013-08-14 18:27:00,
2013-08-14 14:33:00,61.5,56.3,30.10,NW,325,0.0,3.0,83,0.00,,,0.00,Wunderground v.1.15,2013-08-14 18:33:00,
2013-08-14 14:39:00,62.4,57.8,30.10,NW,325,1.0,3.0,85,0.00,,,0.00,Wunderground v.1.15,2013-08-14 18:39:00,
2013-08-14 14:44:00,62.6,56.3,30.10,NW,306,1.0,3.0,80,0.00,,,0.00,Wunderground v.1.15,2013-08-14 18:44:00,
2013-08-14 14:50:00,62.9,57.3,30.10,North,360,1.0,3.0,82,0.00,,,0.00,Wunderground v.1.15,2013-08-14 18:50:00,
2013-08-14 14:56:00,63.5,57.2,30.09,WNW,298,0.0,3.0,80,0.00,,,0.00,Wunderground v.1.15,2013-08-14 18:56:00,
2013-08-14 15:03:00,63.6,57.0,30.09,NW,325,1.0,5.0,79,0.00,,,0.00,Wunderground v.1.15,2013-08-14 19:03:00,
2013-08-14 15:15:00,63.6,57.0,30.09,North,5,0.0,4.0,79,0.00,,,0.00,Wunderground v.1.15,2013-08-14 19:15:00,
2013-08-14 15:21:00,63.3,57.4,30.10,North,5,0.0,4.0,81,0.00,,,0.00,Wunderground v.1.15,2013-08-14 19:21:00,
2013-08-14 15:26:00,63.4,57.1,30.09,NNW,345,0.0,4.0,80,0.00,,,0.00,Wunderground v.1.15,2013-08-14 19:26:00,
2013-08-14 15:31:00,63.4,56.8,30.10,SW,229,0.0,4.0,79,0.00,,,0.00,Wunderground v.1.15,2013-08-14 19:31:00,
2013-08-14 15:37:00,62.9,57.0,30.10,SW,221,1.0,4.0,81,0.00,,,0.00,Wunderground v.1.15,2013-08-14 19:37:00,
2013-08-14 15:42:00,62.4,56.8,30.10,SW,225,1.0,4.0,82,0.00,,,0.00,Wunderground v.1.15,2013-08-14 19:42:00,
2013-08-14 15:48:00,62.0,56.8,30.10,North,5,0.0,4.0,83,0.00,,,0.00,Wunderground v.1.15,2013-08-14 19:48:00,
2013-08-14 15:54:00,61.7,57.1,30.10,North,350,0.0,4.0,85,0.00,,,0.00,Wunderground v.1.15,2013-08-14 19:54:00,
2013-08-14 16:01:00,61.4,57.8,30.10,NNW,340,0.0,4.0,88,0.00,,,0.00,Wunderground v.1.15,2013-08-14 20:01:00,
2013-08-14 16:07:00,61.5,57.6,30.10,NNW,340,0.0,4.0,87,0.00,,,0.00,Wunderground v.1.15,2013-08-14 20:07:00,
2013-08-14 16:13:00,62.0,57.8,30.10,North,355,0.0,4.0,86,0.00,,,0.00,Wunderground v.1.15,2013-08-14 20:13:00,
2013-08-14 16:21:00,62.6,57.7,30.10,NW,319,0.0,4.0,84,0.00,,,0.00,Wunderground v.1.15,2013-08-14 20:21:00,
2013-08-14 16:27:00,63.2,56.9,30.10,WNW,297,1.0,4.0,80,0.00,,,0.00,Wunderground v.1.15,2013-08-14 20:27:00,
2013-08-14 16:33:00,63.2,57.3,30.10,NW,315,1.0,4.0,81,0.00,,,0.00,Wunderground v.1.15,2013-08-14 20:33:00,
2013-08-14 16:39:00,63.3,57.4,30.10,WNW,299,1.0,8.0,81,0.00,,,0.00,Wunderground v.1.15,2013-08-14 20:39:00,
2013-08-14 16:47:00,63.6,57.7,30.10,NE,46,1.0,5.0,81,0.00,,,0.00,Wunderground v.1.15,2013-08-14 20:47:00,
2013-08-14 16:53:00,63.4,57.5,30.10,NE,52,1.0,5.0,81,0.00,,,0.00,Wunderground v.1.15,2013-08-14 20:53:00,
2013-08-14 16:59:00,63.2,57.6,30.10,NNW,348,1.0,5.0,82,0.00,,,0.00,Wunderground v.1.15,2013-08-14 20:59:00,
2013-08-14 17:04:00,63.4,57.8,30.10,NNW,333,1.0,5.0,82,0.00,,,0.00,Wunderground v.1.15,2013-08-14 21:04:00,
2013-08-14 17:10:00,63.4,57.5,30.10,SW,230,1.0,5.0,81,0.00,,,0.00,Wunderground v.1.15,2013-08-14 21:10:00,
2013-08-14 17:16:00,63.6,58.0,30.10,ESE,102,1.0,5.0,82,0.00,,,0.00,Wunderground v.1.15,2013-08-14 21:16:00,
2013-08-14 17:21:00,63.9,57.3,30.10,WNW,286,1.0,5.0,79,0.00,,,0.00,Wunderground v.1.15,2013-08-14 21:21:00,
2013-08-14 17:27:00,63.9,58.0,30.10,NW,306,1.0,5.0,81,0.00,,,0.00,Wunderground v.1.15,2013-08-14 21:27:00,
2013-08-14 17:32:00,64.1,58.1,30.10,West,261,1.0,5.0,81,0.00,,,0.00,Wunderground v.1.15,2013-08-14 21:32:00,
2013-08-14 17:37:00,64.1,57.5,30.10,SSE,150,0.0,5.0,79,0.00,,,0.00,Wunderground v.1.15,2013-08-14 21:37:00,
2013-08-14 17:42:00,64.5,58.9,30.10,SSE,150,0.0,5.0,82,0.00,,,0.00,Wunderground v.1.15,2013-08-14 21:42:00,
2013-08-14 17:48:00,64.5,58.9,30.10,SE,145,0.0,5.0,82,0.00,,,0.00,Wunderground v.1.15,2013-08-14 21:48:00,
2013-08-14 17:54:00,64.4,58.4,30.10,NW,322,1.0,5.0,81,0.00,,,0.00,Wunderground v.1.15,2013-08-14 21:54:00,
2013-08-14 18:00:00,63.9,58.3,30.10,NW,323,1.0,1.0,82,0.00,,,0.00,Wunderground v.1.15,2013-08-14 22:00:00,
2013-08-14 18:06:00,63.2,58.3,30.10,NNW,348,0.0,7.0,84,0.00,,,0.00,Wunderground v.1.15,2013-08-14 22:06:00,
2013-08-14 18:11:00,63.1,58.8,30.10,NNW,348,0.0,7.0,86,0.00,,,0.00,Wunderground v.1.15,2013-08-14 22:11:00,
2013-08-14 18:17:00,63.6,60.0,30.10,NNW,348,0.0,7.0,88,0.00,,,0.00,Wunderground v.1.15,2013-08-14 22:17:00,
2013-08-14 18:23:00,63.7,59.1,30.09,WNW,296,0.0,7.0,85,0.00,,,0.00,Wunderground v.1.15,2013-08-14 22:23:00,
2013-08-14 18:28:00,63.6,59.3,30.10,WNW,297,0.0,7.0,86,0.00,,,0.00,Wunderground v.1.15,2013-08-14 22:28:00,
2013-08-14 18:33:00,63.6,59.7,30.10,WNW,296,0.0,7.0,87,0.00,,,0.00,Wunderground v.1.15,2013-08-14 22:33:00,
2013-08-14 18:39:00,63.7,58.8,30.09,NW,311,0.0,7.0,84,0.00,,,0.00,Wunderground v.1.15,2013-08-14 22:39:00,
2013-08-14 18:44:00,63.6,60.0,30.09,NW,311,0.0,7.0,88,0.00,,,0.00,Wunderground v.1.15,2013-08-14 22:44:00,
2013-08-14 18:50:00,63.8,59.5,30.09,West,279,0.0,7.0,86,0.00,,,0.00,Wunderground v.1.15,2013-08-14 22:50:00,
2013-08-14 18:56:00,63.7,58.1,30.10,NNW,336,1.0,7.0,82,0.00,,,0.00,Wunderground v.1.15,2013-08-14 22:56:00,
2013-08-14 19:01:00,63.4,58.5,30.10,NW,320,1.0,4.0,84,0.00,,,0.00,Wunderground v.1.15,2013-08-14 23:01:00,
2013-08-14 19:06:00,63.0,57.8,30.09,NW,319,0.0,5.0,83,0.00,,,0.00,Wunderground v.1.15,2013-08-14 23:06:00,
2013-08-14 19:11:00,62.7,57.5,30.10,WNW,290,1.0,5.0,83,0.00,,,0.00,Wunderground v.1.15,2013-08-14 23:11:00,
2013-08-14 19:17:00,62.0,58.1,30.10,WNW,290,1.0,5.0,87,0.00,,,0.00,Wunderground v.1.15,2013-08-14 23:17:00,
2013-08-14 19:22:00,61.1,57.8,30.10,WNW,290,0.0,5.0,89,0.00,,,0.00,Wunderground v.1.15,2013-08-14 23:22:00,
2013-08-14 19:28:00,60.2,57.6,30.10,WNW,290,0.0,5.0,91,0.00,,,0.00,Wunderground v.1.15,2013-08-14 23:28:00,
2013-08-14 19:34:00,59.4,57.1,30.10,WNW,290,0.0,5.0,92,0.00,,,0.00,Wunderground v.1.15,2013-08-14 23:34:00,
2013-08-14 19:39:00,59.2,56.9,30.10,WNW,290,0.0,5.0,92,0.00,,,0.00,Wunderground v.1.15,2013-08-14 23:39:00,
2013-08-14 19:45:00,59.3,57.3,30.11,WNW,290,0.0,5.0,93,0.00,,,0.00,Wunderground v.1.15,2013-08-14 23:45:00,
2013-08-14 19:51:00,59.5,57.2,30.11,WNW,290,0.0,5.0,92,0.00,,,0.00,Wunderground v.1.15,2013-08-14 23:51:00,
2013-08-14 19:57:00,59.4,57.1,30.11,WNW,290,0.0,5.0,92,0.00,,,0.00,Wunderground v.1.15,2013-08-14 23:57:00,
2013-08-14 20:02:00,59.3,57.0,30.11,WNW,290,0.0,9.0,92,0.00,,,0.00,Wunderground v.1.15,2013-08-15 00:02:00,
2013-08-14 20:08:00,59.0,56.7,30.11,WNW,290,0.0,9.0,92,0.00,,,0.00,Wunderground v.1.15,2013-08-15 00:08:00,
2013-08-14 20:14:00,59.0,56.7,30.11,WNW,290,0.0,9.0,92,0.00,,,0.00,Wunderground v.1.15,2013-08-15 00:14:00,
2013-08-14 20:20:00,58.7,56.4,30.11,WNW,290,0.0,9.0,92,0.00,,,0.00,Wunderground v.1.15,2013-08-15 00:20:00,
2013-08-14 20:26:00,58.4,56.1,30.11,WNW,290,0.0,9.0,92,0.00,,,0.00,Wunderground v.1.15,2013-08-15 00:26:00,
2013-08-14 20:31:00,58.1,56.1,30.11,WNW,290,0.0,9.0,93,0.00,,,0.00,Wunderground v.1.15,2013-08-15 00:31:00,
2013-08-14 20:36:00,57.7,55.7,30.11,WNW,290,0.0,9.0,93,0.00,,,0.00,Wunderground v.1.15,2013-08-15 00:36:00,
2013-08-14 20:42:00,57.4,55.4,30.11,WNW,290,0.0,9.0,93,0.00,,,0.00,Wunderground v.1.15,2013-08-15 00:42:00,
2013-08-14 20:47:00,57.1,55.1,30.12,WNW,290,0.0,9.0,93,0.00,,,0.00,Wunderground v.1.15,2013-08-15 00:47:00,
2013-08-14 20:53:00,56.7,54.7,30.12,WNW,290,0.0,9.0,93,0.00,,,0.00,Wunderground v.1.15,2013-08-15 00:53:00,
2013-08-14 20:59:00,56.4,54.7,30.12,WNW,290,0.0,9.0,94,0.00,,,0.00,Wunderground v.1.15,2013-08-15 00:59:00,
2013-08-14 21:04:00,56.1,54.4,30.12,WNW,290,0.0,0.0,94,0.00,,,0.00,Wunderground v.1.15,2013-08-15 01:04:00,
2013-08-14 21:10:00,55.8,54.1,30.12,WNW,290,0.0,0.0,94,0.00,,,0.00,Wunderground v.1.15,2013-08-15 01:10:00,
2013-08-14 21:15:00,55.5,53.8,30.13,WNW,290,0.0,0.0,94,0.00,,,0.00,Wunderground v.1.15,2013-08-15 01:15:00,
2013-08-14 21:21:00,55.2,53.5,30.13,WNW,290,0.0,0.0,94,0.00,,,0.00,Wunderground v.1.15,2013-08-15 01:21:00,
2013-08-14 21:26:00,55.0,53.3,30.13,WNW,290,0.0,0.0,94,0.00,,,0.00,Wunderground v.1.15,2013-08-15 01:26:00,
2013-08-14 21:31:00,54.8,53.4,30.13,WNW,290,0.0,0.0,95,0.00,,,0.00,Wunderground v.1.15,2013-08-15 01:31:00,
2013-08-14 21:37:00,54.5,53.1,30.13,WNW,290,0.0,0.0,95,0.00,,,0.00,Wunderground v.1.15,2013-08-15 01:37:00,
2013-08-14 21:42:00,54.3,52.9,30.13,WNW,290,0.0,0.0,95,0.00,,,0.00,Wunderground v.1.15,2013-08-15 01:42:00,
2013-08-14 21:48:00,54.1,52.7,30.14,WNW,290,0.0,0.0,95,0.00,,,0.00,Wunderground v.1.15,2013-08-15 01:48:00,
2013-08-14 21:53:00,53.9,52.5,30.14,WNW,290,0.0,0.0,95,0.00,,,0.00,Wunderground v.1.15,2013-08-15 01:53:00,
2013-08-14 21:59:00,53.6,52.5,30.14,WNW,290,0.0,0.0,96,0.00,,,0.00,Wunderground v.1.15,2013-08-15 01:59:00,
2013-08-14 22:04:00,53.4,52.3,30.14,WNW,290,0.0,0.0,96,0.00,,,0.00,Wunderground v.1.15,2013-08-15 02:04:00,
2013-08-14 22:10:00,53.2,52.1,30.14,WNW,290,0.0,0.0,96,0.00,,,0.00,Wunderground v.1.15,2013-08-15 02:10:00,
2013-08-14 22:16:00,53.0,51.9,30.14,WNW,290,0.0,0.0,96,0.00,,,0.00,Wunderground v.1.15,2013-08-15 02:16:00,
2013-08-14 22:22:00,52.8,51.7,30.14,WNW,290,0.0,0.0,96,0.00,,,0.00,Wunderground v.1.15,2013-08-15 02:22:00,
2013-08-14 22:27:00,52.7,51.6,30.14,WNW,290,0.0,0.0,96,0.00,,,0.00,Wunderground v.1.15,2013-08-15 02:27:00,
2013-08-14 22:33:00,52.5,51.4,30.14,WNW,290,0.0,0.0,96,0.00,,,0.00,Wunderground v.1.15,2013-08-15 02:33:00,
2013-08-14 22:39:00,52.3,51.2,30.14,WNW,290,0.0,0.0,96,0.00,,,0.00,Wunderground v.1.15,2013-08-15 02:39:00,
2013-08-14 22:45:00,52.1,51.0,30.15,WNW,290,0.0,0.0,96,0.00,,,0.00,Wunderground v.1.15,2013-08-15 02:45:00,
2013-08-14 22:50:00,52.0,50.9,30.15,WNW,290,0.0,0.0,96,0.00,,,0.00,Wunderground v.1.15,2013-08-15 02:50:00,
2013-08-14 22:56:00,51.8,51.0,30.15,WNW,290,0.0,0.0,97,0.00,,,0.00,Wunderground v.1.15,2013-08-15 02:56:00,
2013-08-14 23:01:00,51.7,50.9,30.15,WNW,290,0.0,0.0,97,0.00,,,0.00,Wunderground v.1.15,2013-08-15 03:01:00,
2013-08-14 23:07:00,51.5,50.7,30.15,WNW,290,0.0,0.0,97,0.00,,,0.00,Wunderground v.1.15,2013-08-15 03:07:00,
2013-08-14 23:12:00,51.4,50.6,30.15,WNW,290,0.0,0.0,97,0.00,,,0.00,Wunderground v.1.15,2013-08-15 03:12:00,
2013-08-14 23:18:00,51.4,50.6,30.15,WNW,290,0.0,0.0,97,0.00,,,0.00,Wunderground v.1.15,2013-08-15 03:18:00,
2013-08-14 23:24:00,51.3,50.5,30.15,WNW,290,0.0,0.0,97,0.00,,,0.00,Wunderground v.1.15,2013-08-15 03:24:00,
2013-08-14 23:30:00,51.2,50.4,30.15,WNW,290,0.0,0.0,97,0.00,,,0.00,Wunderground v.1.15,2013-08-15 03:30:00,
2013-08-14 23:35:00,51.1,50.3,30.15,WNW,290,0.0,0.0,97,0.00,,,0.00,Wunderground v.1.15,2013-08-15 03:35:00,
2013-08-14 23:41:00,51.0,50.5,30.15,WNW,290,0.0,0.0,98,0.00,,,0.00,Wunderground v.1.15,2013-08-15 03:41:00,
2013-08-14 23:46:00,50.9,50.4,30.15,WNW,290,0.0,0.0,98,0.00,,,0.00,Wunderground v.1.15,2013-08-15 03:46:00,
2013-08-14 23:52:00,50.8,50.3,30.16,WNW,290,0.0,0.0,98,0.00,,,0.00,Wunderground v.1.15,2013-08-15 03:52:00,
2013-08-14 23:58:00,50.7,50.2,30.16,WNW,290,0.0,0.0,98,0.00,,,0.00,Wunderground v.1.15,2013-08-15 03:58:00,